sensor_id;sensor_type;location;lat;lon;timestamp;P1;durP1;ratioP1;P2;durP2;ratioP2
60472;SDS011;46318;52.716;6.444;2023-04-24T00:00:55;1.20;;;1.00;;
60472;SDS011;46318;52.716;6.444;2023-04-24T00:03:22;1.13;;;1.02;;
60472;SDS011;46318;52.716;6.444;2023-04-24T00:05:48;1.60;;;1.50;;
60472;SDS011;46318;52.716;6.444;2023-04-24T00:08:15;1.20;;;1.20;;
60472;SDS011;46318;52.716;6.444;2023-04-24T00:10:41;1.90;;;1.65;;
60472;SDS011;46318;52.716;6.444;2023-04-24T00:13:07;1.70;;;1.60;;
60472;SDS011;46318;52.716;6.444;2023-04-24T00:15:33;1.60;;;1.50;;
60472;SDS011;46318;52.716;6.444;2023-04-24T00:17:58;1.65;;;1.55;;
60472;SDS011;46318;52.716;6.444;2023-04-24T00:20:26;1.90;;;1.80;;
60472;SDS011;46318;52.716;6.444;2023-04-24T00:22:57;1.92;;;1.83;;
60472;SDS011;46318;52.716;6.444;2023-04-24T00:25:23;2.13;;;2.03;;
60472;SDS011;46318;52.716;6.444;2023-04-24T00:27:49;2.30;;;2.20;;
60472;SDS011;46318;52.716;6.444;2023-04-24T00:30:15;3.00;;;2.80;;
60472;SDS011;46318;52.716;6.444;2023-04-24T00:32:41;2.92;;;2.72;;
60472;SDS011;46318;52.716;6.444;2023-04-24T00:35:07;3.30;;;3.10;;
60472;SDS011;46318;52.716;6.444;2023-04-24T00:37:33;3.78;;;3.15;;
60472;SDS011;46318;52.716;6.444;2023-04-24T00:39:58;3.47;;;3.10;;
60472;SDS011;46318;52.716;6.444;2023-04-24T00:42:24;3.80;;;3.40;;
60472;SDS011;46318;52.716;6.444;2023-04-24T00:44:50;3.47;;;3.28;;
60472;SDS011;46318;52.716;6.444;2023-04-24T00:47:17;4.50;;;4.10;;
60472;SDS011;46318;52.716;6.444;2023-04-24T00:49:45;4.20;;;3.90;;
60472;SDS011;46318;52.716;6.444;2023-04-24T00:52:11;4.35;;;4.05;;
60472;SDS011;46318;52.716;6.444;2023-04-24T00:54:37;4.63;;;4.22;;
60472;SDS011;46318;52.716;6.444;2023-04-24T00:57:03;4.40;;;4.10;;
60472;SDS011;46318;52.716;6.444;2023-04-24T00:59:29;4.35;;;4.05;;
60472;SDS011;46318;52.716;6.444;2023-04-24T01:01:56;4.20;;;3.90;;
60472;SDS011;46318;52.716;6.444;2023-04-24T01:04:22;4.22;;;3.90;;
60472;SDS011;46318;52.716;6.444;2023-04-24T01:06:49;3.10;;;2.90;;
60472;SDS011;46318;52.716;6.444;2023-04-24T01:09:15;3.58;;;3.28;;
60472;SDS011;46318;52.716;6.444;2023-04-24T01:11:42;3.72;;;3.42;;
60472;SDS011;46318;52.716;6.444;2023-04-24T01:14:08;4.63;;;4.32;;
60472;SDS011;46318;52.716;6.444;2023-04-24T01:16:35;4.28;;;4.07;;
60472;SDS011;46318;52.716;6.444;2023-04-24T01:19:03;4.22;;;3.92;;
60472;SDS011;46318;52.716;6.444;2023-04-24T01:21:31;4.75;;;4.45;;
60472;SDS011;46318;52.716;6.444;2023-04-24T01:24:02;5.22;;;4.82;;
60472;SDS011;46318;52.716;6.444;2023-04-24T01:26:31;4.57;;;4.32;;
60472;SDS011;46318;52.716;6.444;2023-04-24T01:28:57;4.90;;;4.60;;
60472;SDS011;46318;52.716;6.444;2023-04-24T01:31:23;4.50;;;4.25;;
60472;SDS011;46318;52.716;6.444;2023-04-24T01:33:50;4.90;;;4.60;;
60472;SDS011;46318;52.716;6.444;2023-04-24T01:36:16;4.40;;;4.10;;
60472;SDS011;46318;52.716;6.444;2023-04-24T01:38:44;4.32;;;4.13;;
60472;SDS011;46318;52.716;6.444;2023-04-24T01:41:10;4.20;;;3.90;;
60472;SDS011;46318;52.716;6.444;2023-04-24T01:43:36;4.18;;;3.92;;
60472;SDS011;46318;52.716;6.444;2023-04-24T01:46:02;4.55;;;4.22;;
60472;SDS011;46318;52.716;6.444;2023-04-24T01:48:28;4.60;;;4.20;;
60472;SDS011;46318;52.716;6.444;2023-04-24T01:50:56;4.15;;;3.92;;
60472;SDS011;46318;52.716;6.444;2023-04-24T01:53:22;4.50;;;4.10;;
60472;SDS011;46318;52.716;6.444;2023-04-24T01:55:48;4.30;;;4.00;;
60472;SDS011;46318;52.716;6.444;2023-04-24T01:58:14;4.40;;;4.10;;
60472;SDS011;46318;52.716;6.444;2023-04-24T02:00:39;4.10;;;3.80;;
60472;SDS011;46318;52.716;6.444;2023-04-24T02:03:06;4.40;;;4.10;;
60472;SDS011;46318;52.716;6.444;2023-04-24T02:05:32;4.85;;;4.45;;
60472;SDS011;46318;52.716;6.444;2023-04-24T02:07:58;4.75;;;4.45;;
60472;SDS011;46318;52.716;6.444;2023-04-24T02:10:24;5.07;;;4.70;;
60472;SDS011;46318;52.716;6.444;2023-04-24T02:12:50;4.97;;;4.68;;
60472;SDS011;46318;52.716;6.444;2023-04-24T02:15:16;5.15;;;4.82;;
60472;SDS011;46318;52.716;6.444;2023-04-24T02:17:42;5.38;;;4.88;;
60472;SDS011;46318;52.716;6.444;2023-04-24T02:20:08;5.20;;;4.90;;
60472;SDS011;46318;52.716;6.444;2023-04-24T02:22:35;5.65;;;5.25;;
60472;SDS011;46318;52.716;6.444;2023-04-24T02:25:00;5.38;;;5.00;;
60472;SDS011;46318;52.716;6.444;2023-04-24T02:27:27;5.60;;;5.20;;
60472;SDS011;46318;52.716;6.444;2023-04-24T02:29:53;5.80;;;5.30;;
60472;SDS011;46318;52.716;6.444;2023-04-24T02:32:18;6.18;;;5.47;;
60472;SDS011;46318;52.716;6.444;2023-04-24T02:34:44;6.05;;;5.55;;
60472;SDS011;46318;52.716;6.444;2023-04-24T02:37:10;6.55;;;6.05;;
60472;SDS011;46318;52.716;6.444;2023-04-24T02:39:36;6.10;;;5.60;;
60472;SDS011;46318;52.716;6.444;2023-04-24T02:42:02;6.10;;;5.60;;
60472;SDS011;46318;52.716;6.444;2023-04-24T02:44:27;6.72;;;6.13;;
60472;SDS011;46318;52.716;6.444;2023-04-24T02:46:53;6.60;;;6.10;;
60472;SDS011;46318;52.716;6.444;2023-04-24T02:49:19;6.88;;;6.32;;
60472;SDS011;46318;52.716;6.444;2023-04-24T02:51:45;6.75;;;6.15;;
60472;SDS011;46318;52.716;6.444;2023-04-24T02:54:11;7.10;;;6.50;;
60472;SDS011;46318;52.716;6.444;2023-04-24T02:56:37;6.70;;;6.20;;
60472;SDS011;46318;52.716;6.444;2023-04-24T02:59:02;6.68;;;6.18;;
60472;SDS011;46318;52.716;6.444;2023-04-24T03:01:28;6.72;;;6.22;;
60472;SDS011;46318;52.716;6.444;2023-04-24T03:03:54;7.07;;;6.38;;
60472;SDS011;46318;52.716;6.444;2023-04-24T03:06:20;6.70;;;6.10;;
60472;SDS011;46318;52.716;6.444;2023-04-24T03:08:46;6.50;;;5.90;;
60472;SDS011;46318;52.716;6.444;2023-04-24T03:11:12;6.03;;;5.63;;
60472;SDS011;46318;52.716;6.444;2023-04-24T03:13:38;5.70;;;5.30;;
60472;SDS011;46318;52.716;6.444;2023-04-24T03:16:04;5.30;;;5.00;;
60472;SDS011;46318;52.716;6.444;2023-04-24T03:18:30;5.15;;;4.75;;
60472;SDS011;46318;52.716;6.444;2023-04-24T03:20:56;4.65;;;4.35;;
60472;SDS011;46318;52.716;6.444;2023-04-24T03:23:22;4.32;;;4.03;;
60472;SDS011;46318;52.716;6.444;2023-04-24T03:25:48;5.20;;;4.80;;
60472;SDS011;46318;52.716;6.444;2023-04-24T03:28:14;5.32;;;4.93;;
60472;SDS011;46318;52.716;6.444;2023-04-24T03:30:40;5.32;;;4.90;;
60472;SDS011;46318;52.716;6.444;2023-04-24T03:33:06;5.65;;;5.25;;
60472;SDS011;46318;52.716;6.444;2023-04-24T03:35:31;5.00;;;4.60;;
60472;SDS011;46318;52.716;6.444;2023-04-24T03:37:57;4.75;;;4.40;;
60472;SDS011;46318;52.716;6.444;2023-04-24T03:40:23;4.53;;;4.22;;
60472;SDS011;46318;52.716;6.444;2023-04-24T03:42:49;4.68;;;4.28;;
60472;SDS011;46318;52.716;6.444;2023-04-24T03:45:15;4.28;;;3.90;;
60472;SDS011;46318;52.716;6.444;2023-04-24T03:47:40;3.45;;;3.25;;
60472;SDS011;46318;52.716;6.444;2023-04-24T03:50:06;4.55;;;3.35;;
60472;SDS011;46318;52.716;6.444;2023-04-24T03:52:33;4.10;;;3.80;;
60472;SDS011;46318;52.716;6.444;2023-04-24T03:54:58;4.20;;;3.90;;
60472;SDS011;46318;52.716;6.444;2023-04-24T03:57:24;4.00;;;3.70;;
60472;SDS011;46318;52.716;6.444;2023-04-24T03:59:50;5.75;;;5.13;;
60472;SDS011;46318;52.716;6.444;2023-04-24T04:02:16;4.90;;;4.55;;
60472;SDS011;46318;52.716;6.444;2023-04-24T04:04:42;5.35;;;4.93;;
60472;SDS011;46318;52.716;6.444;2023-04-24T04:07:08;5.32;;;4.93;;
60472;SDS011;46318;52.716;6.444;2023-04-24T04:09:34;6.25;;;5.70;;
60472;SDS011;46318;52.716;6.444;2023-04-24T04:11:59;5.40;;;4.90;;
60472;SDS011;46318;52.716;6.444;2023-04-24T04:14:26;5.18;;;4.70;;
60472;SDS011;46318;52.716;6.444;2023-04-24T04:16:52;4.88;;;4.47;;
60472;SDS011;46318;52.716;6.444;2023-04-24T04:19:18;5.45;;;5.05;;
60472;SDS011;46318;52.716;6.444;2023-04-24T04:21:44;4.85;;;4.45;;
60472;SDS011;46318;52.716;6.444;2023-04-24T04:24:11;4.25;;;3.95;;
60472;SDS011;46318;52.716;6.444;2023-04-24T04:26:37;5.05;;;3.85;;
60472;SDS011;46318;52.716;6.444;2023-04-24T04:29:04;3.72;;;3.42;;
60472;SDS011;46318;52.716;6.444;2023-04-24T04:31:29;4.10;;;3.70;;
60472;SDS011;46318;52.716;6.444;2023-04-24T04:33:55;3.60;;;3.30;;
60472;SDS011;46318;52.716;6.444;2023-04-24T04:36:21;3.85;;;3.55;;
60472;SDS011;46318;52.716;6.444;2023-04-24T04:38:49;3.15;;;2.95;;
60472;SDS011;46318;52.716;6.444;2023-04-24T04:41:15;3.03;;;2.80;;
60472;SDS011;46318;52.716;6.444;2023-04-24T04:43:43;2.40;;;2.20;;
60472;SDS011;46318;52.716;6.444;2023-04-24T04:46:09;2.63;;;2.42;;
60472;SDS011;46318;52.716;6.444;2023-04-24T04:48:36;2.78;;;2.58;;
60472;SDS011;46318;52.716;6.444;2023-04-24T04:51:03;2.40;;;2.30;;
60472;SDS011;46318;52.716;6.444;2023-04-24T04:53:29;2.90;;;2.70;;
60472;SDS011;46318;52.716;6.444;2023-04-24T04:55:55;3.00;;;2.80;;
60472;SDS011;46318;52.716;6.444;2023-04-24T04:58:21;4.07;;;2.63;;
60472;SDS011;46318;52.716;6.444;2023-04-24T05:00:46;3.13;;;2.78;;
60472;SDS011;46318;52.716;6.444;2023-04-24T05:03:12;3.10;;;2.90;;
60472;SDS011;46318;52.716;6.444;2023-04-24T05:05:38;3.47;;;3.17;;
60472;SDS011;46318;52.716;6.444;2023-04-24T05:08:06;4.43;;;3.10;;
60472;SDS011;46318;52.716;6.444;2023-04-24T05:10:33;3.13;;;2.88;;
60472;SDS011;46318;52.716;6.444;2023-04-24T05:12:59;3.38;;;3.10;;
60472;SDS011;46318;52.716;6.444;2023-04-24T05:15:26;3.05;;;2.85;;
60472;SDS011;46318;52.716;6.444;2023-04-24T05:17:51;3.05;;;2.80;;
60472;SDS011;46318;52.716;6.444;2023-04-24T05:20:17;2.88;;;2.58;;
60472;SDS011;46318;52.716;6.444;2023-04-24T05:22:43;2.33;;;2.13;;
60472;SDS011;46318;52.716;6.444;2023-04-24T05:25:09;2.00;;;1.80;;
60472;SDS011;46318;52.716;6.444;2023-04-24T05:27:35;2.13;;;1.80;;
60472;SDS011;46318;52.716;6.444;2023-04-24T05:30:01;1.85;;;1.75;;
60472;SDS011;46318;52.716;6.444;2023-04-24T05:32:26;1.50;;;1.40;;
60472;SDS011;46318;52.716;6.444;2023-04-24T05:34:52;1.15;;;1.08;;
60472;SDS011;46318;52.716;6.444;2023-04-24T05:37:18;2.80;;;1.25;;
60472;SDS011;46318;52.716;6.444;2023-04-24T05:39:46;1.13;;;1.10;;
60472;SDS011;46318;52.716;6.444;2023-04-24T05:42:12;1.52;;;1.40;;
60472;SDS011;46318;52.716;6.444;2023-04-24T05:44:38;1.83;;;1.70;;
60472;SDS011;46318;52.716;6.444;2023-04-24T05:47:04;2.30;;;2.10;;
60472;SDS011;46318;52.716;6.444;2023-04-24T05:49:30;2.58;;;2.38;;
60472;SDS011;46318;52.716;6.444;2023-04-24T05:51:56;2.70;;;2.50;;
60472;SDS011;46318;52.716;6.444;2023-04-24T05:54:22;4.55;;;2.80;;
60472;SDS011;46318;52.716;6.444;2023-04-24T05:56:49;3.50;;;3.20;;
60472;SDS011;46318;52.716;6.444;2023-04-24T05:59:15;4.95;;;4.20;;
60472;SDS011;46318;52.716;6.444;2023-04-24T06:01:41;4.15;;;3.50;;
60472;SDS011;46318;52.716;6.444;2023-04-24T06:04:07;6.03;;;3.92;;
60472;SDS011;46318;52.716;6.444;2023-04-24T06:06:34;5.38;;;4.47;;
60472;SDS011;46318;52.716;6.444;2023-04-24T06:09:00;5.07;;;4.57;;
60472;SDS011;46318;52.716;6.444;2023-04-24T06:11:27;7.55;;;5.38;;
60472;SDS011;46318;52.716;6.444;2023-04-24T06:13:53;8.15;;;6.93;;
60472;SDS011;46318;52.716;6.444;2023-04-24T06:16:19;9.13;;;7.22;;
60472;SDS011;46318;52.716;6.444;2023-04-24T06:18:45;7.70;;;6.78;;
60472;SDS011;46318;52.716;6.444;2023-04-24T06:21:12;7.32;;;6.15;;
60472;SDS011;46318;52.716;6.444;2023-04-24T06:23:38;9.52;;;6.72;;
60472;SDS011;46318;52.716;6.444;2023-04-24T06:26:04;9.65;;;6.43;;
60472;SDS011;46318;52.716;6.444;2023-04-24T06:28:29;6.30;;;5.43;;
60472;SDS011;46318;52.716;6.444;2023-04-24T06:30:55;6.50;;;5.10;;
60472;SDS011;46318;52.716;6.444;2023-04-24T06:33:21;6.47;;;4.93;;
60472;SDS011;46318;52.716;6.444;2023-04-24T06:35:47;5.75;;;5.13;;
60472;SDS011;46318;52.716;6.444;2023-04-24T06:38:13;9.30;;;6.13;;
60472;SDS011;46318;52.716;6.444;2023-04-24T06:40:39;7.15;;;5.88;;
60472;SDS011;46318;52.716;6.444;2023-04-24T06:43:05;7.70;;;5.57;;
60472;SDS011;46318;52.716;6.444;2023-04-24T06:45:31;7.25;;;5.18;;
60472;SDS011;46318;52.716;6.444;2023-04-24T06:47:57;7.88;;;5.63;;
60472;SDS011;46318;52.716;6.444;2023-04-24T06:50:23;6.28;;;5.50;;
60472;SDS011;46318;52.716;6.444;2023-04-24T06:52:49;5.63;;;4.88;;
60472;SDS011;46318;52.716;6.444;2023-04-24T06:55:15;6.38;;;4.97;;
60472;SDS011;46318;52.716;6.444;2023-04-24T06:57:41;5.45;;;4.30;;
60472;SDS011;46318;52.716;6.444;2023-04-24T07:00:09;5.57;;;3.97;;
60472;SDS011;46318;52.716;6.444;2023-04-24T07:02:35;5.88;;;4.43;;
60472;SDS011;46318;52.716;6.444;2023-04-24T07:05:03;5.75;;;4.78;;
60472;SDS011;46318;52.716;6.444;2023-04-24T07:07:31;5.35;;;4.82;;
60472;SDS011;46318;52.716;6.444;2023-04-24T07:09:57;7.30;;;5.68;;
60472;SDS011;46318;52.716;6.444;2023-04-24T07:12:23;6.90;;;5.22;;
60472;SDS011;46318;52.716;6.444;2023-04-24T07:14:50;8.57;;;5.82;;
60472;SDS011;46318;52.716;6.444;2023-04-24T07:17:15;7.18;;;5.68;;
60472;SDS011;46318;52.716;6.444;2023-04-24T07:19:41;7.28;;;6.18;;
60472;SDS011;46318;52.716;6.444;2023-04-24T07:22:07;7.70;;;6.03;;
60472;SDS011;46318;52.716;6.444;2023-04-24T07:24:33;8.48;;;6.07;;
60472;SDS011;46318;52.716;6.444;2023-04-24T07:26:59;8.80;;;6.47;;
60472;SDS011;46318;52.716;6.444;2023-04-24T07:29:28;7.82;;;6.00;;
60472;SDS011;46318;52.716;6.444;2023-04-24T07:31:54;6.07;;;5.47;;
60472;SDS011;46318;52.716;6.444;2023-04-24T07:34:21;9.95;;;6.00;;
60472;SDS011;46318;52.716;6.444;2023-04-24T07:36:47;8.27;;;6.28;;
60472;SDS011;46318;52.716;6.444;2023-04-24T07:39:13;6.72;;;5.70;;
60472;SDS011;46318;52.716;6.444;2023-04-24T07:41:38;7.10;;;5.90;;
60472;SDS011;46318;52.716;6.444;2023-04-24T07:44:04;7.20;;;6.00;;
60472;SDS011;46318;52.716;6.444;2023-04-24T07:46:30;7.70;;;6.32;;
60472;SDS011;46318;52.716;6.444;2023-04-24T07:48:56;7.70;;;6.13;;
60472;SDS011;46318;52.716;6.444;2023-04-24T07:51:24;8.10;;;5.88;;
60472;SDS011;46318;52.716;6.444;2023-04-24T07:53:52;7.78;;;4.97;;
60472;SDS011;46318;52.716;6.444;2023-04-24T07:56:20;5.68;;;5.10;;
60472;SDS011;46318;52.716;6.444;2023-04-24T07:58:46;5.75;;;4.47;;
60472;SDS011;46318;52.716;6.444;2023-04-24T08:01:12;5.57;;;4.38;;
60472;SDS011;46318;52.716;6.444;2023-04-24T08:03:38;5.55;;;3.75;;
60472;SDS011;46318;52.716;6.444;2023-04-24T08:06:03;4.85;;;3.53;;
60472;SDS011;46318;52.716;6.444;2023-04-24T08:08:30;6.80;;;3.50;;
60472;SDS011;46318;52.716;6.444;2023-04-24T08:10:56;4.68;;;3.45;;
60472;SDS011;46318;52.716;6.444;2023-04-24T08:13:22;6.10;;;4.13;;
60472;SDS011;46318;52.716;6.444;2023-04-24T08:15:47;6.22;;;4.63;;
60472;SDS011;46318;52.716;6.444;2023-04-24T08:18:13;7.22;;;5.45;;
60472;SDS011;46318;52.716;6.444;2023-04-24T08:20:41;9.75;;;5.65;;
60472;SDS011;46318;52.716;6.444;2023-04-24T08:23:06;9.05;;;6.50;;
60472;SDS011;46318;52.716;6.444;2023-04-24T08:25:32;11.43;;;7.75;;
60472;SDS011;46318;52.716;6.444;2023-04-24T08:28:00;13.20;;;10.30;;
60472;SDS011;46318;52.716;6.444;2023-04-24T08:30:29;14.13;;;10.15;;
60472;SDS011;46318;52.716;6.444;2023-04-24T08:32:55;19.33;;;12.63;;
60472;SDS011;46318;52.716;6.444;2023-04-24T08:35:21;18.33;;;13.80;;
60472;SDS011;46318;52.716;6.444;2023-04-24T08:37:48;22.35;;;13.68;;
60472;SDS011;46318;52.716;6.444;2023-04-24T08:40:14;20.33;;;13.07;;
60472;SDS011;46318;52.716;6.444;2023-04-24T08:42:45;20.67;;;13.50;;
60472;SDS011;46318;52.716;6.444;2023-04-24T08:45:11;23.40;;;13.35;;
60472;SDS011;46318;52.716;6.444;2023-04-24T08:47:38;20.90;;;14.27;;
60472;SDS011;46318;52.716;6.444;2023-04-24T08:50:06;24.15;;;18.00;;
60472;SDS011;46318;52.716;6.444;2023-04-24T08:52:33;30.83;;;18.23;;
60472;SDS011;46318;52.716;6.444;2023-04-24T08:55:00;24.75;;;17.10;;
60472;SDS011;46318;52.716;6.444;2023-04-24T08:57:27;25.83;;;17.55;;
60472;SDS011;46318;52.716;6.444;2023-04-24T08:59:54;28.10;;;18.70;;
60472;SDS011;46318;52.716;6.444;2023-04-24T09:02:21;27.13;;;19.55;;
60472;SDS011;46318;52.716;6.444;2023-04-24T09:04:48;27.13;;;17.80;;
60472;SDS011;46318;52.716;6.444;2023-04-24T09:07:15;25.10;;;17.20;;
60472;SDS011;46318;52.716;6.444;2023-04-24T09:09:43;22.92;;;16.50;;
60472;SDS011;46318;52.716;6.444;2023-04-24T09:12:09;25.10;;;16.63;;
60472;SDS011;46318;52.716;6.444;2023-04-24T09:14:35;27.08;;;17.33;;
60472;SDS011;46318;52.716;6.444;2023-04-24T09:17:04;21.77;;;16.42;;
60472;SDS011;46318;52.716;6.444;2023-04-24T09:19:31;21.55;;;16.58;;
60472;SDS011;46318;52.716;6.444;2023-04-24T09:21:57;25.52;;;16.75;;
60472;SDS011;46318;52.716;6.444;2023-04-24T09:24:23;22.90;;;16.25;;
60472;SDS011;46318;52.716;6.444;2023-04-24T09:26:55;20.00;;;15.60;;
60472;SDS011;46318;52.716;6.444;2023-04-24T09:29:24;21.58;;;15.38;;
60472;SDS011;46318;52.716;6.444;2023-04-24T09:31:50;20.08;;;15.00;;
60472;SDS011;46318;52.716;6.444;2023-04-24T09:34:20;21.92;;;15.18;;
60472;SDS011;46318;52.716;6.444;2023-04-24T09:36:51;22.42;;;14.07;;
60472;SDS011;46318;52.716;6.444;2023-04-24T09:39:18;20.42;;;14.52;;
60472;SDS011;46318;52.716;6.444;2023-04-24T09:41:48;21.33;;;14.75;;
60472;SDS011;46318;52.716;6.444;2023-04-24T09:44:22;19.95;;;13.88;;
60472;SDS011;46318;52.716;6.444;2023-04-24T09:46:55;20.20;;;12.90;;
60472;SDS011;46318;52.716;6.444;2023-04-24T09:49:24;19.58;;;12.10;;
60472;SDS011;46318;52.716;6.444;2023-04-24T09:51:51;19.75;;;12.38;;
60472;SDS011;46318;52.716;6.444;2023-04-24T09:54:18;17.30;;;11.65;;
60472;SDS011;46318;52.716;6.444;2023-04-24T09:56:47;18.25;;;10.93;;
60472;SDS011;46318;52.716;6.444;2023-04-24T09:59:16;16.42;;;10.55;;
60472;SDS011;46318;52.716;6.444;2023-04-24T10:01:44;18.35;;;10.25;;
60472;SDS011;46318;52.716;6.444;2023-04-24T10:04:18;15.00;;;10.20;;
60472;SDS011;46318;52.716;6.444;2023-04-24T10:06:45;12.15;;;8.40;;
60472;SDS011;46318;52.716;6.444;2023-04-24T10:09:17;12.30;;;8.35;;
60472;SDS011;46318;52.716;6.444;2023-04-24T10:11:47;12.88;;;8.38;;
60472;SDS011;46318;52.716;6.444;2023-04-24T10:14:19;13.48;;;7.57;;
60472;SDS011;46318;52.716;6.444;2023-04-24T10:16:50;11.20;;;8.30;;
60472;SDS011;46318;52.716;6.444;2023-04-24T10:19:19;11.35;;;7.93;;
60472;SDS011;46318;52.716;6.444;2023-04-24T10:21:45;9.40;;;5.43;;
60472;SDS011;46318;52.716;6.444;2023-04-24T10:24:16;9.32;;;5.25;;
60472;SDS011;46318;52.716;6.444;2023-04-24T10:26:44;9.43;;;5.30;;
60472;SDS011;46318;52.716;6.444;2023-04-24T10:29:13;11.93;;;5.50;;
60472;SDS011;46318;52.716;6.444;2023-04-24T10:31:43;8.07;;;5.15;;
60472;SDS011;46318;52.716;6.444;2023-04-24T10:34:12;9.80;;;4.78;;
60472;SDS011;46318;52.716;6.444;2023-04-24T10:36:42;8.90;;;4.53;;
60472;SDS011;46318;52.716;6.444;2023-04-24T10:39:14;7.53;;;4.35;;
60472;SDS011;46318;52.716;6.444;2023-04-24T10:41:41;6.78;;;4.30;;
60472;SDS011;46318;52.716;6.444;2023-04-24T10:44:11;12.23;;;4.47;;
60472;SDS011;46318;52.716;6.444;2023-04-24T10:46:42;8.45;;;4.60;;
60472;SDS011;46318;52.716;6.444;2023-04-24T10:49:10;11.93;;;4.50;;
60472;SDS011;46318;52.716;6.444;2023-04-24T10:51:46;11.85;;;5.43;;
60472;SDS011;46318;52.716;6.444;2023-04-24T10:54:23;8.80;;;4.40;;
60472;SDS011;46318;52.716;6.444;2023-04-24T10:59:43;11.40;;;5.00;;
60472;SDS011;46318;52.716;6.444;2023-04-24T11:02:09;8.23;;;3.90;;
60472;SDS011;46318;52.716;6.444;2023-04-24T11:04:35;11.75;;;3.80;;
60472;SDS011;46318;52.716;6.444;2023-04-24T11:07:04;10.32;;;3.72;;
60472;SDS011;46318;52.716;6.444;2023-04-24T11:09:31;11.20;;;4.55;;
60472;SDS011;46318;52.716;6.444;2023-04-24T11:12:04;10.38;;;3.80;;
60472;SDS011;46318;52.716;6.444;2023-04-24T11:15:09;10.43;;;3.83;;
60472;SDS011;46318;52.716;6.444;2023-04-24T11:20:09;10.88;;;3.72;;
60472;SDS011;46318;52.716;6.444;2023-04-24T11:22:37;10.10;;;3.20;;
60472;SDS011;46318;52.716;6.444;2023-04-24T11:25:07;6.13;;;3.00;;
60472;SDS011;46318;52.716;6.444;2023-04-24T11:27:43;8.43;;;3.20;;
60472;SDS011;46318;52.716;6.444;2023-04-24T11:30:11;8.75;;;3.10;;
60472;SDS011;46318;52.716;6.444;2023-04-24T11:32:46;7.75;;;3.22;;
60472;SDS011;46318;52.716;6.444;2023-04-24T11:35:16;11.52;;;3.10;;
60472;SDS011;46318;52.716;6.444;2023-04-24T11:37:50;6.47;;;2.63;;
60472;SDS011;46318;52.716;6.444;2023-04-24T11:40:19;5.75;;;2.67;;
60472;SDS011;46318;52.716;6.444;2023-04-24T11:42:48;5.50;;;2.60;;
60472;SDS011;46318;52.716;6.444;2023-04-24T11:45:21;5.45;;;2.75;;
60472;SDS011;46318;52.716;6.444;2023-04-24T11:47:50;5.15;;;2.45;;
60472;SDS011;46318;52.716;6.444;2023-04-24T11:50:17;8.02;;;2.95;;
60472;SDS011;46318;52.716;6.444;2023-04-24T11:52:46;10.80;;;4.25;;
60472;SDS011;46318;52.716;6.444;2023-04-24T11:57:42;7.43;;;3.17;;
60472;SDS011;46318;52.716;6.444;2023-04-24T12:00:15;5.93;;;2.70;;
60472;SDS011;46318;52.716;6.444;2023-04-24T12:03:02;9.25;;;2.85;;
60472;SDS011;46318;52.716;6.444;2023-04-24T12:05:32;9.43;;;3.15;;
60472;SDS011;46318;52.716;6.444;2023-04-24T12:07:58;6.10;;;3.00;;
60472;SDS011;46318;52.716;6.444;2023-04-24T12:10:25;7.18;;;2.90;;
60472;SDS011;46318;52.716;6.444;2023-04-24T12:12:53;8.25;;;3.80;;
60472;SDS011;46318;52.716;6.444;2023-04-24T12:15:21;8.45;;;2.65;;
60472;SDS011;46318;52.716;6.444;2023-04-24T12:17:49;4.80;;;3.28;;
60472;SDS011;46318;52.716;6.444;2023-04-24T12:20:17;5.43;;;2.10;;
60472;SDS011;46318;52.716;6.444;2023-04-24T12:25:23;5.53;;;2.10;;
60472;SDS011;46318;52.716;6.444;2023-04-24T12:27:57;5.18;;;2.03;;
60472;SDS011;46318;52.716;6.444;2023-04-24T12:30:41;9.20;;;2.78;;
60472;SDS011;46318;52.716;6.444;2023-04-24T12:33:16;6.68;;;1.88;;
60472;SDS011;46318;52.716;6.444;2023-04-24T12:35:47;2.67;;;1.50;;
60472;SDS011;46318;52.716;6.444;2023-04-24T12:38:16;2.72;;;1.90;;
60472;SDS011;46318;52.716;6.444;2023-04-24T12:41:00;2.67;;;1.30;;
60472;SDS011;46318;52.716;6.444;2023-04-24T12:43:29;2.67;;;1.25;;
60472;SDS011;46318;52.716;6.444;2023-04-24T12:45:55;2.30;;;1.30;;
60472;SDS011;46318;52.716;6.444;2023-04-24T12:48:22;3.15;;;1.27;;
60472;SDS011;46318;52.716;6.444;2023-04-24T12:50:48;4.93;;;1.48;;
60472;SDS011;46318;52.716;6.444;2023-04-24T12:53:14;2.50;;;1.25;;
60472;SDS011;46318;52.716;6.444;2023-04-24T12:55:40;3.28;;;1.50;;
60472;SDS011;46318;52.716;6.444;2023-04-24T12:58:06;3.25;;;1.40;;
60472;SDS011;46318;52.716;6.444;2023-04-24T13:00:33;3.28;;;1.58;;
60472;SDS011;46318;52.716;6.444;2023-04-24T13:02:58;5.15;;;2.15;;
60472;SDS011;46318;52.716;6.444;2023-04-24T13:05:24;5.05;;;2.00;;
60472;SDS011;46318;52.716;6.444;2023-04-24T13:07:50;5.90;;;2.20;;
60472;SDS011;46318;52.716;6.444;2023-04-24T13:10:16;4.45;;;1.95;;
60472;SDS011;46318;52.716;6.444;2023-04-24T13:12:42;5.68;;;2.28;;
60472;SDS011;46318;52.716;6.444;2023-04-24T13:15:11;5.18;;;2.50;;
60472;SDS011;46318;52.716;6.444;2023-04-24T13:17:37;5.97;;;1.90;;
60472;SDS011;46318;52.716;6.444;2023-04-24T13:20:04;5.47;;;2.10;;
60472;SDS011;46318;52.716;6.444;2023-04-24T13:22:31;6.68;;;1.77;;
60472;SDS011;46318;52.716;6.444;2023-04-24T13:24:57;6.40;;;2.03;;
60472;SDS011;46318;52.716;6.444;2023-04-24T13:27:31;5.20;;;1.92;;
60472;SDS011;46318;52.716;6.444;2023-04-24T13:29:57;4.90;;;1.50;;
60472;SDS011;46318;52.716;6.444;2023-04-24T13:32:24;4.82;;;1.67;;
60472;SDS011;46318;52.716;6.444;2023-04-24T13:34:50;4.40;;;1.20;;
60472;SDS011;46318;52.716;6.444;2023-04-24T13:37:16;2.47;;;1.20;;
60472;SDS011;46318;52.716;6.444;2023-04-24T13:39:42;4.43;;;1.10;;
60472;SDS011;46318;52.716;6.444;2023-04-24T13:42:08;2.33;;;1.00;;
60472;SDS011;46318;52.716;6.444;2023-04-24T13:44:34;4.93;;;1.38;;
60472;SDS011;46318;52.716;6.444;2023-04-24T13:47:00;5.40;;;1.65;;
60472;SDS011;46318;52.716;6.444;2023-04-24T13:49:26;5.43;;;1.40;;
60472;SDS011;46318;52.716;6.444;2023-04-24T13:51:53;3.75;;;1.60;;
60472;SDS011;46318;52.716;6.444;2023-04-24T13:54:20;4.93;;;1.55;;
60472;SDS011;46318;52.716;6.444;2023-04-24T13:56:48;6.30;;;1.60;;
60472;SDS011;46318;52.716;6.444;2023-04-24T13:59:14;3.85;;;1.75;;
60472;SDS011;46318;52.716;6.444;2023-04-24T14:01:40;7.15;;;2.03;;
60472;SDS011;46318;52.716;6.444;2023-04-24T14:04:06;6.43;;;2.10;;
60472;SDS011;46318;52.716;6.444;2023-04-24T14:06:32;6.95;;;2.33;;
60472;SDS011;46318;52.716;6.444;2023-04-24T14:08:58;8.38;;;2.60;;
60472;SDS011;46318;52.716;6.444;2023-04-24T14:11:23;6.10;;;2.17;;
60472;SDS011;46318;52.716;6.444;2023-04-24T14:13:51;9.13;;;2.60;;
60472;SDS011;46318;52.716;6.444;2023-04-24T14:16:17;9.00;;;2.80;;
60472;SDS011;46318;52.716;6.444;2023-04-24T14:18:42;9.07;;;2.50;;
60472;SDS011;46318;52.716;6.444;2023-04-24T14:21:08;7.38;;;2.50;;
60472;SDS011;46318;52.716;6.444;2023-04-24T14:23:34;10.13;;;3.25;;
60472;SDS011;46318;52.716;6.444;2023-04-24T14:26:00;8.95;;;2.75;;
60472;SDS011;46318;52.716;6.444;2023-04-24T14:28:26;10.40;;;2.55;;
60472;SDS011;46318;52.716;6.444;2023-04-24T14:30:52;8.30;;;3.13;;
60472;SDS011;46318;52.716;6.444;2023-04-24T14:33:18;10.50;;;2.65;;
60472;SDS011;46318;52.716;6.444;2023-04-24T14:35:45;8.90;;;2.80;;
60472;SDS011;46318;52.716;6.444;2023-04-24T14:38:11;13.00;;;3.10;;
60472;SDS011;46318;52.716;6.444;2023-04-24T14:40:37;11.50;;;2.97;;
60472;SDS011;46318;52.716;6.444;2023-04-24T14:43:03;10.13;;;3.05;;
60472;SDS011;46318;52.716;6.444;2023-04-24T14:45:29;11.55;;;3.92;;
60472;SDS011;46318;52.716;6.444;2023-04-24T14:47:55;12.85;;;3.92;;
60472;SDS011;46318;52.716;6.444;2023-04-24T14:50:25;11.27;;;3.40;;
60472;SDS011;46318;52.716;6.444;2023-04-24T14:52:54;9.90;;;2.78;;